createdAt,value
2024-03-02T00:00:32.726Z,8.62
2024-03-02T00:02:59.980Z,8.54
2024-03-02T00:05:26.680Z,8.46
2024-03-02T00:07:58.407Z,8.50
2024-03-02T00:10:38.380Z,8.46
2024-03-02T00:13:05.375Z,8.43
2024-03-02T00:15:42.378Z,8.46
2024-03-02T00:18:12.855Z,8.45
2024-03-02T00:20:40.610Z,8.45
2024-03-02T00:23:08.778Z,8.52
2024-03-02T00:25:44.364Z,8.54
2024-03-02T00:28:26.470Z,8.62
2024-03-02T00:30:58.745Z,8.71
2024-03-02T00:33:29.247Z,8.76
2024-03-02T00:35:56.459Z,8.80
2024-03-02T00:38:23.646Z,8.84
2024-03-02T00:40:50.695Z,8.88
2024-03-02T00:43:38.871Z,8.89
2024-03-02T00:46:05.702Z,8.89
2024-03-02T00:48:32.779Z,8.92
2024-03-02T00:50:59.529Z,8.99
2024-03-02T00:53:27.608Z,9.06
2024-03-02T00:55:54.664Z,9.12
2024-03-02T00:58:21.344Z,9.16
2024-03-02T01:00:49.353Z,9.20
2024-03-02T01:03:16.990Z,9.23
2024-03-02T01:05:44.497Z,9.23
2024-03-02T01:08:11.882Z,9.28
2024-03-02T01:10:38.642Z,9.27
2024-03-02T01:13:05.429Z,9.33
2024-03-02T01:15:32.207Z,9.43
2024-03-02T01:17:58.938Z,9.48
2024-03-02T01:20:26.052Z,9.50
2024-03-02T01:22:53.371Z,9.57
2024-03-02T01:25:20.180Z,9.65
2024-03-02T01:27:49.142Z,9.66
2024-03-02T01:30:17.191Z,9.68
2024-03-02T01:33:03.378Z,9.67
2024-03-02T01:35:30.164Z,9.67
2024-03-02T01:37:56.827Z,9.72
2024-03-02T01:40:27.344Z,9.73
2024-03-02T01:43:04.152Z,9.75
2024-03-02T01:45:30.871Z,9.72
2024-03-02T01:47:57.937Z,9.71
2024-03-02T01:50:33.483Z,9.71
2024-03-02T01:53:01.142Z,9.75
2024-03-02T01:55:30.229Z,9.75
2024-03-02T01:57:57.730Z,9.76
2024-03-02T02:00:28.087Z,9.78
2024-03-02T02:02:56.394Z,9.82
2024-03-02T02:05:23.448Z,9.84
2024-03-02T02:07:50.595Z,9.81
2024-03-02T02:10:17.590Z,9.74
2024-03-02T02:12:44.645Z,9.69
2024-03-02T02:15:27.723Z,9.66
2024-03-02T02:17:58.508Z,9.63
2024-03-02T02:20:25.990Z,9.58
2024-03-02T02:22:57.447Z,9.54
2024-03-02T02:25:24.245Z,9.53
2024-03-02T02:27:51.197Z,9.48
2024-03-02T02:30:27.815Z,9.45
2024-03-02T02:32:54.812Z,9.46
2024-03-02T02:35:21.603Z,9.46
2024-03-02T02:37:49.237Z,9.50
2024-03-02T02:40:16.714Z,9.48
2024-03-02T02:42:44.121Z,9.46
2024-03-02T02:45:12.138Z,9.38
2024-03-02T02:47:39.186Z,9.42
2024-03-02T02:50:08.665Z,9.41
2024-03-02T02:52:37.599Z,9.49
2024-03-02T02:55:05.769Z,9.52
2024-03-02T02:57:40.063Z,9.55
2024-03-02T03:00:12.040Z,9.56
2024-03-02T03:02:40.057Z,9.59
2024-03-02T03:05:07.726Z,9.63
2024-03-02T03:07:35.529Z,9.63
2024-03-02T03:10:02.924Z,9.66
2024-03-02T03:12:29.760Z,9.67
2024-03-02T03:14:56.918Z,9.63
2024-03-02T03:17:24.273Z,9.63
2024-03-02T03:19:51.649Z,9.67
2024-03-02T03:22:18.474Z,9.68
2024-03-02T03:24:45.368Z,9.62
2024-03-02T03:27:15.035Z,9.64
2024-03-02T03:29:41.837Z,9.63
2024-03-02T03:32:08.632Z,9.63
2024-03-02T03:34:35.822Z,9.67
2024-03-02T03:37:03.317Z,9.69
2024-03-02T03:39:30.164Z,9.62
2024-03-02T03:41:57.434Z,9.55
2024-03-02T03:44:24.156Z,9.52
2024-03-02T03:46:50.858Z,9.48
2024-03-02T03:49:18.565Z,9.49
2024-03-02T03:51:45.409Z,9.43
2024-03-02T03:54:12.496Z,9.49
2024-03-02T03:56:39.359Z,9.46
2024-03-02T03:59:06.098Z,9.46
2024-03-02T04:01:33.152Z,9.57
2024-03-02T04:04:00.004Z,9.58
2024-03-02T04:06:26.875Z,9.54
2024-03-02T04:08:53.689Z,9.54
2024-03-02T04:11:20.456Z,9.56
2024-03-02T04:13:47.189Z,9.55
2024-03-02T04:16:14.004Z,9.55
2024-03-02T04:18:41.006Z,9.55
2024-03-02T04:21:07.819Z,9.56
2024-03-02T04:23:34.572Z,9.62
2024-03-02T04:26:01.292Z,9.61
2024-03-02T04:28:27.987Z,9.64
2024-03-02T04:30:54.750Z,9.55
2024-03-02T04:33:21.728Z,9.73
2024-03-02T04:35:48.512Z,9.75
2024-03-02T04:38:15.254Z,9.81
2024-03-02T04:40:41.933Z,9.81
2024-03-02T04:43:10.652Z,9.81
2024-03-02T04:45:40.554Z,9.83
2024-03-02T04:48:07.975Z,9.84
2024-03-02T04:50:34.737Z,9.91
2024-03-02T04:53:01.481Z,9.95
2024-03-02T04:55:28.145Z,9.97
2024-03-02T04:57:57.910Z,9.97
2024-03-02T05:00:24.758Z,10.01
2024-03-02T05:02:52.819Z,10.06
2024-03-02T05:05:19.575Z,10.04
2024-03-02T05:07:46.609Z,10.09
2024-03-02T05:10:13.338Z,10.09
2024-03-02T05:12:46.116Z,10.07
2024-03-02T05:15:16.721Z,10.02
2024-03-02T05:17:46.874Z,10.12
2024-03-02T05:20:13.911Z,10.12
2024-03-02T05:22:41.257Z,10.14
2024-03-02T05:25:08.622Z,10.15
2024-03-02T05:27:35.533Z,10.13
2024-03-02T05:30:03.007Z,10.16
2024-03-02T05:32:29.702Z,10.13
2024-03-02T05:34:56.483Z,10.13
2024-03-02T05:37:23.391Z,10.18
2024-03-02T05:39:50.493Z,10.18
2024-03-02T05:42:18.147Z,10.18
2024-03-02T05:44:44.962Z,10.20
2024-03-02T05:47:11.782Z,10.21
2024-03-02T05:49:38.549Z,10.24
2024-03-02T05:52:05.511Z,10.25
2024-03-02T05:54:32.327Z,10.24
2024-03-02T05:57:17.805Z,10.22
2024-03-02T05:59:45.261Z,10.20
2024-03-02T06:02:12.617Z,10.25
2024-03-02T06:04:39.786Z,10.21
2024-03-02T06:07:06.787Z,10.27
2024-03-02T06:09:33.663Z,10.26
2024-03-02T06:12:00.569Z,10.25
2024-03-02T06:14:27.458Z,10.25
2024-03-02T06:16:54.145Z,10.26
2024-03-02T06:19:20.823Z,10.26
2024-03-02T06:21:47.575Z,10.25
2024-03-02T06:24:14.256Z,10.26
2024-03-02T06:26:40.986Z,10.29
2024-03-02T06:29:08.845Z,10.27
2024-03-02T06:31:39.585Z,10.26
2024-03-02T06:34:06.349Z,10.26
2024-03-02T06:36:33.209Z,10.18
2024-03-02T06:38:59.906Z,10.18
2024-03-02T06:41:27.817Z,10.17
2024-03-02T06:44:00.947Z,10.09
2024-03-02T06:46:27.895Z,10.10
2024-03-02T06:48:54.714Z,10.06
2024-03-02T06:51:21.529Z,10.04
2024-03-02T06:53:48.598Z,10.02
2024-03-02T06:56:15.374Z,10.06
2024-03-02T06:58:42.060Z,10.08
2024-03-02T07:01:08.825Z,10.10
2024-03-02T07:03:36.017Z,10.17
2024-03-02T07:06:02.833Z,10.14
2024-03-02T07:08:29.682Z,10.19
2024-03-02T07:10:56.396Z,10.25
2024-03-02T07:13:23.195Z,10.25
2024-03-02T07:15:56.018Z,10.26
2024-03-02T07:18:22.821Z,10.27
2024-03-02T07:20:50.834Z,10.25
2024-03-02T07:23:17.662Z,10.21
2024-03-02T07:28:14.065Z,10.25
2024-03-02T07:30:41.204Z,10.25
2024-03-02T07:33:08.158Z,10.12
2024-03-02T07:35:34.903Z,10.20
2024-03-02T07:38:01.941Z,10.18
2024-03-02T07:40:28.690Z,10.10
2024-03-02T07:42:56.171Z,10.06
2024-03-02T07:45:23.188Z,10.03
2024-03-02T07:47:51.272Z,9.97
2024-03-02T07:50:18.156Z,9.95
2024-03-02T07:52:44.899Z,9.96
2024-03-02T07:55:11.622Z,9.97
2024-03-02T07:57:38.474Z,9.96
2024-03-02T08:00:05.808Z,9.94
2024-03-02T08:02:32.469Z,9.99
2024-03-02T08:04:59.148Z,10.02
2024-03-02T08:07:25.876Z,10.01
2024-03-02T08:09:52.641Z,10.03
2024-03-02T08:12:20.852Z,9.98
2024-03-02T08:14:47.682Z,10.00
2024-03-02T08:17:14.391Z,10.04
2024-03-02T08:19:41.099Z,10.07
2024-03-02T08:22:08.159Z,10.05
2024-03-02T08:24:35.240Z,9.97
2024-03-02T08:27:02.173Z,9.96
2024-03-02T08:29:29.596Z,9.89
2024-03-02T08:31:56.306Z,10.10
2024-03-02T08:34:23.001Z,10.14
2024-03-02T08:36:49.953Z,10.15
2024-03-02T08:39:17.066Z,10.24
2024-03-02T08:41:45.840Z,10.31
2024-03-02T08:44:13.444Z,10.37
2024-03-02T08:46:40.815Z,10.38
2024-03-02T08:49:08.674Z,10.44
2024-03-02T08:51:35.591Z,10.54
2024-03-02T08:54:02.368Z,10.61
2024-03-02T08:56:29.083Z,10.71
2024-03-02T08:58:55.816Z,10.76
2024-03-02T09:01:23.219Z,10.93
2024-03-02T09:03:50.710Z,11.04
2024-03-02T09:06:23.481Z,11.14
2024-03-02T09:08:53.009Z,11.28
2024-03-02T09:11:19.754Z,11.41
2024-03-02T09:13:46.517Z,11.51
2024-03-02T09:16:13.493Z,11.59
2024-03-02T09:18:40.341Z,11.59
2024-03-02T09:21:07.819Z,11.57
2024-03-02T09:23:34.973Z,11.67
2024-03-02T09:26:01.809Z,11.75
2024-03-02T09:28:28.459Z,11.77
2024-03-02T09:30:56.906Z,11.68
2024-03-02T09:33:25.326Z,11.56
2024-03-02T09:35:54.274Z,11.59
2024-03-02T09:38:21.783Z,11.70
2024-03-02T09:40:48.557Z,11.74
2024-03-02T09:43:15.436Z,11.86
2024-03-02T09:45:42.447Z,11.90
2024-03-02T09:48:09.476Z,11.98
2024-03-02T09:50:36.321Z,12.01
2024-03-02T09:53:03.497Z,12.01
2024-03-02T09:55:30.247Z,12.00
2024-03-02T09:57:57.404Z,11.94
2024-03-02T10:00:24.173Z,11.98
2024-03-02T10:02:51.480Z,12.00
2024-03-02T10:05:31.289Z,11.92
2024-03-02T10:08:05.688Z,11.78
2024-03-02T10:10:44.472Z,11.82
2024-03-02T10:13:12.867Z,11.85
2024-03-02T10:15:44.091Z,11.93
2024-03-02T10:18:17.142Z,11.98
2024-03-02T10:20:43.940Z,12.02
2024-03-02T10:23:16.443Z,12.11
2024-03-02T10:25:51.751Z,12.08
2024-03-02T10:28:24.633Z,12.03
2024-03-02T10:30:54.184Z,12.04
2024-03-02T10:33:21.187Z,12.05
2024-03-02T10:35:50.733Z,12.04
2024-03-02T10:38:18.470Z,12.07
2024-03-02T10:40:49.900Z,12.11
2024-03-02T10:43:17.027Z,12.11
2024-03-02T10:45:44.420Z,12.11
2024-03-02T10:48:11.387Z,12.19
2024-03-02T10:50:38.190Z,12.16
2024-03-02T10:53:07.012Z,12.21
2024-03-02T10:55:34.553Z,12.20
2024-03-02T10:58:06.148Z,12.19
2024-03-02T11:00:38.165Z,12.24
2024-03-02T11:03:07.456Z,12.27
2024-03-02T11:05:37.578Z,12.20
2024-03-02T11:08:09.509Z,12.32
2024-03-02T11:10:43.778Z,12.36
2024-03-02T11:13:12.996Z,12.37
2024-03-02T11:15:42.515Z,12.38
2024-03-02T11:18:10.307Z,12.37
2024-03-02T11:20:41.567Z,12.37
2024-03-02T11:23:09.990Z,12.32
2024-03-02T11:25:37.332Z,12.33
2024-03-02T11:28:06.587Z,12.23
2024-03-02T11:30:33.566Z,12.22
2024-03-02T11:33:00.998Z,12.22
2024-03-02T11:35:30.901Z,12.18
2024-03-02T11:38:00.037Z,12.19
2024-03-02T11:40:27.142Z,12.11
2024-03-02T11:42:54.824Z,12.07
2024-03-02T11:45:25.537Z,12.02
2024-03-02T11:47:54.643Z,12.02
2024-03-02T11:50:48.321Z,12.04
2024-03-02T11:53:15.494Z,12.02
2024-03-02T11:55:42.438Z,12.04
2024-03-02T11:58:09.348Z,12.03
2024-03-02T12:00:36.562Z,12.05
2024-03-02T12:03:07.281Z,12.04
2024-03-02T12:05:34.592Z,12.01
2024-03-02T12:08:03.709Z,12.03
2024-03-02T12:10:31.804Z,12.06
2024-03-02T12:12:58.901Z,12.13
2024-03-02T12:15:30.743Z,12.03
2024-03-02T12:17:59.120Z,12.01
2024-03-02T12:20:27.615Z,12.09
2024-03-02T12:22:55.590Z,12.15
2024-03-02T12:25:23.946Z,12.06
2024-03-02T12:27:54.687Z,12.01
2024-03-02T12:30:22.098Z,12.04
2024-03-02T12:32:49.285Z,12.11
2024-03-02T12:35:18.295Z,12.05
2024-03-02T12:37:48.800Z,12.22
2024-03-02T12:40:18.921Z,12.29
2024-03-02T12:42:47.316Z,12.27
2024-03-02T12:45:15.133Z,12.20
2024-03-02T12:47:43.228Z,12.18
2024-03-02T12:50:12.134Z,12.29
2024-03-02T12:52:38.886Z,12.34
2024-03-02T12:55:06.945Z,12.33
2024-03-02T12:57:34.500Z,12.26
2024-03-02T13:00:10.299Z,12.18
2024-03-02T13:02:40.455Z,12.12
2024-03-02T13:05:12.216Z,12.12
2024-03-02T13:07:39.581Z,12.10
2024-03-02T13:10:08.858Z,12.10
2024-03-02T13:12:37.312Z,12.01
2024-03-02T13:15:05.192Z,12.04
2024-03-02T13:17:37.623Z,12.01
2024-03-02T13:20:09.486Z,12.07
2024-03-02T13:22:37.118Z,12.11
2024-03-02T13:25:05.542Z,12.20
2024-03-02T13:27:36.124Z,12.18
2024-03-02T13:30:06.991Z,12.29
2024-03-02T13:32:34.120Z,12.29
2024-03-02T13:35:01.474Z,12.31
2024-03-02T13:37:28.260Z,12.31
2024-03-02T13:39:55.251Z,12.32
2024-03-02T13:42:22.257Z,12.33
2024-03-02T13:44:51.083Z,12.35
2024-03-02T13:47:18.308Z,12.33
2024-03-02T13:49:47.143Z,12.39
2024-03-02T13:52:18.413Z,12.36
2024-03-02T13:54:47.381Z,12.37
2024-03-02T13:57:14.578Z,12.34
2024-03-02T13:59:43.231Z,12.29
2024-03-02T14:02:10.873Z,12.35
2024-03-02T14:04:38.736Z,12.37
2024-03-02T14:07:09.886Z,12.37
2024-03-02T14:09:37.480Z,12.38
2024-03-02T14:12:05.840Z,12.35
2024-03-02T14:14:32.847Z,12.37
2024-03-02T14:17:04.545Z,12.32
2024-03-02T14:19:31.769Z,12.30
2024-03-02T14:21:58.911Z,12.26
2024-03-02T14:24:27.091Z,12.29
2024-03-02T14:27:00.779Z,12.28
2024-03-02T14:29:31.116Z,12.27
2024-03-02T14:31:57.832Z,12.28
2024-03-02T14:34:24.652Z,12.28
2024-03-02T14:36:51.584Z,12.28
2024-03-02T14:39:20.201Z,12.28
2024-03-02T14:41:46.937Z,12.21
2024-03-02T14:44:13.952Z,12.24
2024-03-02T14:46:42.132Z,12.27
2024-03-02T14:49:09.494Z,12.33
2024-03-02T14:51:36.311Z,12.39
2024-03-02T14:54:04.210Z,12.43
2024-03-02T14:56:31.024Z,12.45
2024-03-02T14:58:57.778Z,12.48
2024-03-02T15:01:25.698Z,12.48
2024-03-02T15:03:53.121Z,12.36
2024-03-02T15:06:19.973Z,12.26
2024-03-02T15:08:47.714Z,12.21
2024-03-02T15:11:14.600Z,12.12
2024-03-02T15:13:41.739Z,12.06
2024-03-02T15:16:08.819Z,12.04
2024-03-02T15:18:36.162Z,12.00
2024-03-02T15:21:03.367Z,11.98
2024-03-02T15:23:31.068Z,11.92
2024-03-02T15:25:57.958Z,11.92
2024-03-02T15:28:24.737Z,11.85
2024-03-02T15:30:53.435Z,11.83
2024-03-02T15:33:22.054Z,11.82
2024-03-02T15:35:48.773Z,11.79
2024-03-02T15:38:24.960Z,11.80
2024-03-02T15:40:59.246Z,11.80
2024-03-02T15:43:25.901Z,11.78
2024-03-02T15:45:52.779Z,11.78
2024-03-02T15:48:19.564Z,11.77
2024-03-02T15:50:46.549Z,11.80
2024-03-02T15:53:14.289Z,11.80
2024-03-02T15:55:41.055Z,11.83
2024-03-02T15:58:07.924Z,11.85
2024-03-02T16:00:35.028Z,11.83
2024-03-02T16:03:02.545Z,11.83
2024-03-02T16:05:29.290Z,11.75
2024-03-02T16:07:56.016Z,11.71
2024-03-02T16:10:22.785Z,11.72
2024-03-02T16:12:49.616Z,11.72
2024-03-02T16:15:16.493Z,11.74
2024-03-02T16:17:43.182Z,11.75
2024-03-02T16:20:11.345Z,11.71
2024-03-02T16:22:38.234Z,11.57
2024-03-02T16:25:06.083Z,11.53
2024-03-02T16:27:33.030Z,11.47
2024-03-02T16:30:00.307Z,11.44
2024-03-02T16:32:27.520Z,11.46
2024-03-02T16:34:54.792Z,11.43
2024-03-02T16:37:21.819Z,11.40
2024-03-02T16:39:49.747Z,11.39
2024-03-02T16:42:16.566Z,11.28
2024-03-02T16:44:43.350Z,11.32
2024-03-02T16:47:12.381Z,11.30
2024-03-02T16:49:40.478Z,11.29
2024-03-02T16:52:07.339Z,11.28
2024-03-02T16:54:34.124Z,11.33
2024-03-02T16:57:00.894Z,11.33
2024-03-02T16:59:27.610Z,11.36
2024-03-02T17:01:54.403Z,11.36
2024-03-02T17:04:24.613Z,11.36
2024-03-02T17:06:52.167Z,11.34
2024-03-02T17:09:18.931Z,11.33
2024-03-02T17:11:45.795Z,11.31
2024-03-02T17:14:12.803Z,11.33
2024-03-02T17:16:39.554Z,11.29
2024-03-02T17:19:06.327Z,11.29
2024-03-02T17:21:33.846Z,11.26
2024-03-02T17:24:03.570Z,11.25
2024-03-02T17:26:30.887Z,11.14
2024-03-02T17:28:57.634Z,11.23
2024-03-02T17:31:24.547Z,11.13
2024-03-02T17:33:51.401Z,11.05
2024-03-02T17:36:18.230Z,11.17
2024-03-02T17:38:44.983Z,11.14
2024-03-02T17:41:12.202Z,11.09
2024-03-02T17:43:39.139Z,11.12
2024-03-02T17:46:06.276Z,11.12
2024-03-02T17:48:33.519Z,11.09
2024-03-02T17:51:00.185Z,10.96
2024-03-02T17:53:26.960Z,11.01
2024-03-02T17:55:53.792Z,11.00
2024-03-02T17:58:20.597Z,10.92
2024-03-02T18:01:06.120Z,10.93
2024-03-02T18:03:33.415Z,10.90
2024-03-02T18:06:00.234Z,10.88
2024-03-02T18:08:26.988Z,10.84
2024-03-02T18:10:54.214Z,10.82
2024-03-02T18:13:21.040Z,10.77
2024-03-02T18:15:50.257Z,10.72
2024-03-02T18:18:18.253Z,10.71
2024-03-02T18:20:46.148Z,10.68
2024-03-02T18:23:14.108Z,10.63
2024-03-02T18:25:43.262Z,10.56
2024-03-02T18:28:09.946Z,10.54
2024-03-02T18:30:36.969Z,10.53
2024-03-02T18:33:05.153Z,10.47
2024-03-02T18:35:32.000Z,10.48
2024-03-02T18:37:58.737Z,10.43
2024-03-02T18:40:25.471Z,10.42
2024-03-02T18:42:52.341Z,10.39
2024-03-02T18:45:19.068Z,10.36
2024-03-02T18:47:45.919Z,10.36
2024-03-02T18:50:13.398Z,10.34
2024-03-02T18:52:40.074Z,10.35
2024-03-02T18:55:08.540Z,10.34
2024-03-02T18:57:36.045Z,10.33
2024-03-02T19:00:06.409Z,10.30
2024-03-02T19:02:33.163Z,10.27
2024-03-02T19:05:01.962Z,10.28
2024-03-02T19:07:29.537Z,10.26
2024-03-02T19:09:56.376Z,10.23
2024-03-02T19:12:24.673Z,10.17
2024-03-02T19:14:54.394Z,10.10
2024-03-02T19:17:21.180Z,10.06
2024-03-02T19:19:47.856Z,10.08
2024-03-02T19:22:14.630Z,10.00
2024-03-02T19:24:41.453Z,9.96
2024-03-02T19:27:08.228Z,9.95
2024-03-02T19:29:34.939Z,9.98
2024-03-02T19:32:05.629Z,9.95
2024-03-02T19:34:35.460Z,9.97
2024-03-02T19:37:02.321Z,9.96
2024-03-02T19:39:30.837Z,10.03
2024-03-02T19:42:00.377Z,10.03
2024-03-02T19:44:32.673Z,10.03
2024-03-02T19:46:59.767Z,10.04
2024-03-02T19:49:26.703Z,10.04
2024-03-02T19:51:53.655Z,10.05
2024-03-02T19:54:20.438Z,10.07
2024-03-02T19:56:47.231Z,10.07
2024-03-02T19:59:14.283Z,10.07
2024-03-02T20:01:41.903Z,10.07
2024-03-02T20:04:09.294Z,10.03
2024-03-02T20:06:36.141Z,10.07
2024-03-02T20:09:03.001Z,10.09
2024-03-02T20:11:33.326Z,10.10
2024-03-02T20:14:00.935Z,10.10
2024-03-02T20:16:27.769Z,10.12
2024-03-02T20:18:54.543Z,10.09
2024-03-02T20:21:21.353Z,10.12
2024-03-02T20:23:48.057Z,10.12
2024-03-02T20:26:14.733Z,10.11
2024-03-02T20:28:41.447Z,10.12
2024-03-02T20:31:09.215Z,10.09
2024-03-02T20:33:36.108Z,10.12
2024-03-02T20:36:04.157Z,10.11
2024-03-02T20:38:30.909Z,10.11
2024-03-02T20:40:57.615Z,10.09
2024-03-02T20:43:24.298Z,10.09
2024-03-02T20:45:51.012Z,10.01
2024-03-02T20:48:18.970Z,10.10
2024-03-02T20:50:48.367Z,10.11
2024-03-02T20:53:16.052Z,10.09
2024-03-02T20:55:43.210Z,10.07
2024-03-02T20:58:09.929Z,10.08
2024-03-02T21:00:36.723Z,10.03
2024-03-02T21:03:04.762Z,10.05
2024-03-02T21:05:32.358Z,10.07
2024-03-02T21:07:59.013Z,10.10
2024-03-02T21:10:25.811Z,10.13
2024-03-02T21:12:52.635Z,10.12
2024-03-02T21:15:19.556Z,10.09
2024-03-02T21:17:46.343Z,10.05
2024-03-02T21:20:13.717Z,10.10
2024-03-02T21:22:42.172Z,10.12
2024-03-02T21:25:13.104Z,10.13
2024-03-02T21:27:40.385Z,10.13
2024-03-02T21:30:07.912Z,10.11
2024-03-02T21:32:35.479Z,10.07
2024-03-02T21:35:02.466Z,10.08
2024-03-02T21:37:29.265Z,10.09
2024-03-02T21:39:56.438Z,10.06
2024-03-02T21:42:24.194Z,10.08
2024-03-02T21:44:51.290Z,10.08
2024-03-02T21:47:18.086Z,10.03
2024-03-02T21:49:44.775Z,10.02
2024-03-02T21:52:11.624Z,10.04
2024-03-02T21:54:38.440Z,10.01
2024-03-02T21:57:07.297Z,9.99
2024-03-02T21:59:34.604Z,10.00
2024-03-02T22:02:01.419Z,9.96
2024-03-02T22:04:28.195Z,10.00
2024-03-02T22:06:55.214Z,10.02
2024-03-02T22:09:21.983Z,10.04
2024-03-02T22:11:48.636Z,10.02
2024-03-02T22:14:19.968Z,10.00
2024-03-02T22:16:47.277Z,9.96
2024-03-02T22:19:14.052Z,9.92
2024-03-02T22:21:40.909Z,9.84
2024-03-02T22:24:07.730Z,9.81
2024-03-02T22:26:34.516Z,9.77
2024-03-02T22:29:01.283Z,9.74
2024-03-02T22:31:28.002Z,9.81
2024-03-02T22:33:54.730Z,9.80
2024-03-02T22:36:21.483Z,9.79
2024-03-02T22:38:48.648Z,9.77
2024-03-02T22:41:15.452Z,9.74
2024-03-02T22:43:42.130Z,9.69
2024-03-02T22:46:09.592Z,9.64
2024-03-02T22:48:36.343Z,9.59
2024-03-02T22:51:03.254Z,9.54
2024-03-02T22:53:30.031Z,9.49
2024-03-02T22:55:56.875Z,9.44
2024-03-02T22:58:23.559Z,9.43
2024-03-02T23:00:58.847Z,9.40
2024-03-02T23:03:26.117Z,9.36
2024-03-02T23:05:52.771Z,9.31
2024-03-02T23:08:19.468Z,9.30
2024-03-02T23:10:46.779Z,9.29
2024-03-02T23:13:13.992Z,9.26
2024-03-02T23:15:40.864Z,9.22
2024-03-02T23:18:07.820Z,9.21
2024-03-02T23:20:34.547Z,9.17
2024-03-02T23:23:05.647Z,9.16
2024-03-02T23:25:36.153Z,9.18
2024-03-02T23:28:03.513Z,9.13
2024-03-02T23:30:30.489Z,9.10
2024-03-02T23:32:57.994Z,9.10
2024-03-02T23:35:24.842Z,9.08
2024-03-02T23:37:52.243Z,9.05
2024-03-02T23:40:34.070Z,9.08
2024-03-02T23:43:00.821Z,9.04
2024-03-02T23:45:27.550Z,9.03
2024-03-02T23:47:54.383Z,9.00
2024-03-02T23:50:21.310Z,8.99
2024-03-02T23:52:47.989Z,8.98
2024-03-02T23:55:14.776Z,8.89
2024-03-02T23:57:41.547Z,8.94
